sensor_id;sensor_type;location;lat;lon;timestamp;P1;durP1;ratioP1;P2;durP2;ratioP2
75506;SDS011;64086;43.220;27.878;2023-03-17T00:01:28;6.55;;;5.10;;
75506;SDS011;64086;43.220;27.878;2023-03-17T00:03:53;6.50;;;5.30;;
75506;SDS011;64086;43.220;27.878;2023-03-17T00:06:21;6.47;;;5.18;;
75506;SDS011;64086;43.220;27.878;2023-03-17T00:08:49;6.40;;;5.03;;
75506;SDS011;64086;43.220;27.878;2023-03-17T00:11:16;6.22;;;4.68;;
75506;SDS011;64086;43.220;27.878;2023-03-17T00:13:42;7.07;;;4.97;;
75506;SDS011;64086;43.220;27.878;2023-03-17T00:16:18;6.93;;;5.07;;
75506;SDS011;64086;43.220;27.878;2023-03-17T00:18:46;6.75;;;5.53;;
75506;SDS011;64086;43.220;27.878;2023-03-17T00:21:13;6.30;;;5.20;;
75506;SDS011;64086;43.220;27.878;2023-03-17T00:23:42;7.65;;;5.25;;
75506;SDS011;64086;43.220;27.878;2023-03-17T00:26:09;6.40;;;5.30;;
75506;SDS011;64086;43.220;27.878;2023-03-17T00:28:36;6.65;;;5.50;;
75506;SDS011;64086;43.220;27.878;2023-03-17T00:31:05;7.32;;;5.82;;
75506;SDS011;64086;43.220;27.878;2023-03-17T00:33:38;7.00;;;5.50;;
75506;SDS011;64086;43.220;27.878;2023-03-17T00:36:04;6.80;;;5.22;;
75506;SDS011;64086;43.220;27.878;2023-03-17T00:38:31;7.55;;;5.97;;
75506;SDS011;64086;43.220;27.878;2023-03-17T00:40:57;6.70;;;6.00;;
75506;SDS011;64086;43.220;27.878;2023-03-17T00:43:22;7.18;;;5.05;;
75506;SDS011;64086;43.220;27.878;2023-03-17T00:45:48;6.50;;;5.07;;
75506;SDS011;64086;43.220;27.878;2023-03-17T00:48:16;6.35;;;5.15;;
75506;SDS011;64086;43.220;27.878;2023-03-17T00:50:43;7.25;;;5.00;;
75506;SDS011;64086;43.220;27.878;2023-03-17T00:53:12;6.25;;;4.95;;
75506;SDS011;64086;43.220;27.878;2023-03-17T00:55:40;6.20;;;4.78;;
75506;SDS011;64086;43.220;27.878;2023-03-17T01:00:44;6.70;;;4.72;;
75506;SDS011;64086;43.220;27.878;2023-03-17T01:03:10;5.80;;;4.80;;
75506;SDS011;64086;43.220;27.878;2023-03-17T01:05:36;7.13;;;4.72;;
75506;SDS011;64086;43.220;27.878;2023-03-17T01:08:02;6.05;;;5.00;;
75506;SDS011;64086;43.220;27.878;2023-03-17T01:10:28;5.75;;;4.55;;
75506;SDS011;64086;43.220;27.878;2023-03-17T01:12:56;5.80;;;4.40;;
75506;SDS011;64086;43.220;27.878;2023-03-17T01:15:23;5.80;;;4.10;;
75506;SDS011;64086;43.220;27.878;2023-03-17T01:17:50;6.28;;;4.05;;
75506;SDS011;64086;43.220;27.878;2023-03-17T01:20:23;5.13;;;3.75;;
75506;SDS011;64086;43.220;27.878;2023-03-17T01:22:49;5.43;;;3.42;;
75506;SDS011;64086;43.220;27.878;2023-03-17T01:25:15;5.00;;;3.67;;
75506;SDS011;64086;43.220;27.878;2023-03-17T01:27:42;4.93;;;3.70;;
75506;SDS011;64086;43.220;27.878;2023-03-17T01:32:46;5.20;;;3.70;;
75506;SDS011;64086;43.220;27.878;2023-03-17T01:35:11;4.40;;;3.25;;
75506;SDS011;64086;43.220;27.878;2023-03-17T01:37:37;5.70;;;3.70;;
75506;SDS011;64086;43.220;27.878;2023-03-17T01:40:04;4.22;;;3.63;;
75506;SDS011;64086;43.220;27.878;2023-03-17T01:42:30;4.40;;;3.30;;
75506;SDS011;64086;43.220;27.878;2023-03-17T01:44:57;5.00;;;3.60;;
75506;SDS011;64086;43.220;27.878;2023-03-17T01:47:27;5.47;;;3.92;;
75506;SDS011;64086;43.220;27.878;2023-03-17T01:49:56;5.68;;;3.97;;
75506;SDS011;64086;43.220;27.878;2023-03-17T01:52:24;6.38;;;4.03;;
75506;SDS011;64086;43.220;27.878;2023-03-17T01:55:07;6.13;;;4.40;;
75506;SDS011;64086;43.220;27.878;2023-03-17T02:02:33;6.40;;;4.47;;
75506;SDS011;64086;43.220;27.878;2023-03-17T02:05:01;6.65;;;4.60;;
75506;SDS011;64086;43.220;27.878;2023-03-17T02:07:29;6.70;;;5.05;;
75506;SDS011;64086;43.220;27.878;2023-03-17T02:09:55;5.38;;;4.53;;
75506;SDS011;64086;43.220;27.878;2023-03-17T02:12:22;5.70;;;4.15;;
75506;SDS011;64086;43.220;27.878;2023-03-17T02:14:48;5.53;;;4.45;;
75506;SDS011;64086;43.220;27.878;2023-03-17T02:17:15;6.50;;;4.57;;
75506;SDS011;64086;43.220;27.878;2023-03-17T02:19:42;5.53;;;4.40;;
75506;SDS011;64086;43.220;27.878;2023-03-17T02:22:07;5.13;;;3.97;;
75506;SDS011;64086;43.220;27.878;2023-03-17T02:24:35;5.65;;;4.15;;
75506;SDS011;64086;43.220;27.878;2023-03-17T02:27:03;4.80;;;4.03;;
75506;SDS011;64086;43.220;27.878;2023-03-17T02:29:33;6.35;;;4.07;;
75506;SDS011;64086;43.220;27.878;2023-03-17T02:32:00;5.43;;;4.28;;
75506;SDS011;64086;43.220;27.878;2023-03-17T02:34:26;6.43;;;4.22;;
75506;SDS011;64086;43.220;27.878;2023-03-17T02:36:51;5.78;;;4.35;;
75506;SDS011;64086;43.220;27.878;2023-03-17T02:39:17;5.93;;;4.30;;
75506;SDS011;64086;43.220;27.878;2023-03-17T02:41:42;5.57;;;4.10;;
75506;SDS011;64086;43.220;27.878;2023-03-17T02:44:08;6.13;;;4.30;;
75506;SDS011;64086;43.220;27.878;2023-03-17T02:46:33;5.00;;;3.92;;
75506;SDS011;64086;43.220;27.878;2023-03-17T02:48:59;5.20;;;3.80;;
75506;SDS011;64086;43.220;27.878;2023-03-17T02:51:26;5.82;;;3.70;;
75506;SDS011;64086;43.220;27.878;2023-03-17T02:53:52;6.13;;;4.10;;
75506;SDS011;64086;43.220;27.878;2023-03-17T02:56:17;5.63;;;4.20;;
75506;SDS011;64086;43.220;27.878;2023-03-17T02:58:43;5.75;;;3.63;;
75506;SDS011;64086;43.220;27.878;2023-03-17T03:01:08;5.50;;;3.75;;
75506;SDS011;64086;43.220;27.878;2023-03-17T03:03:34;5.35;;;3.72;;
75506;SDS011;64086;43.220;27.878;2023-03-17T03:06:01;5.07;;;3.72;;
75506;SDS011;64086;43.220;27.878;2023-03-17T03:08:27;5.00;;;4.00;;
75506;SDS011;64086;43.220;27.878;2023-03-17T03:10:52;5.00;;;4.00;;
75506;SDS011;64086;43.220;27.878;2023-03-17T03:13:19;4.93;;;3.80;;
75506;SDS011;64086;43.220;27.878;2023-03-17T03:15:45;4.82;;;3.80;;
75506;SDS011;64086;43.220;27.878;2023-03-17T03:18:11;5.68;;;4.00;;
75506;SDS011;64086;43.220;27.878;2023-03-17T03:20:37;5.22;;;3.75;;
75506;SDS011;64086;43.220;27.878;2023-03-17T03:23:02;6.05;;;4.00;;
75506;SDS011;64086;43.220;27.878;2023-03-17T03:25:28;5.20;;;3.80;;
75506;SDS011;64086;43.220;27.878;2023-03-17T03:27:54;5.78;;;3.55;;
75506;SDS011;64086;43.220;27.878;2023-03-17T03:30:19;5.15;;;3.72;;
75506;SDS011;64086;43.220;27.878;2023-03-17T03:32:44;4.05;;;3.17;;
75506;SDS011;64086;43.220;27.878;2023-03-17T03:35:11;4.88;;;3.50;;
75506;SDS011;64086;43.220;27.878;2023-03-17T03:37:37;5.72;;;3.67;;
75506;SDS011;64086;43.220;27.878;2023-03-17T03:40:02;5.63;;;3.58;;
75506;SDS011;64086;43.220;27.878;2023-03-17T03:42:28;5.80;;;3.85;;
75506;SDS011;64086;43.220;27.878;2023-03-17T03:44:54;4.22;;;3.40;;
75506;SDS011;64086;43.220;27.878;2023-03-17T03:47:20;6.50;;;3.55;;
75506;SDS011;64086;43.220;27.878;2023-03-17T03:49:45;5.90;;;3.38;;
75506;SDS011;64086;43.220;27.878;2023-03-17T03:52:10;4.22;;;3.40;;
75506;SDS011;64086;43.220;27.878;2023-03-17T03:54:36;6.15;;;3.38;;
75506;SDS011;64086;43.220;27.878;2023-03-17T03:57:01;4.35;;;3.22;;
75506;SDS011;64086;43.220;27.878;2023-03-17T03:59:27;4.43;;;3.33;;
75506;SDS011;64086;43.220;27.878;2023-03-17T04:01:53;5.90;;;3.60;;
75506;SDS011;64086;43.220;27.878;2023-03-17T04:04:18;4.40;;;3.20;;
75506;SDS011;64086;43.220;27.878;2023-03-17T04:06:44;4.85;;;3.50;;
75506;SDS011;64086;43.220;27.878;2023-03-17T04:09:10;5.28;;;3.63;;
75506;SDS011;64086;43.220;27.878;2023-03-17T04:11:36;4.68;;;3.25;;
75506;SDS011;64086;43.220;27.878;2023-03-17T04:14:02;4.53;;;3.30;;
75506;SDS011;64086;43.220;27.878;2023-03-17T04:16:28;5.72;;;3.80;;
75506;SDS011;64086;43.220;27.878;2023-03-17T04:18:53;5.72;;;3.17;;
75506;SDS011;64086;43.220;27.878;2023-03-17T04:21:19;4.80;;;3.25;;
75506;SDS011;64086;43.220;27.878;2023-03-17T04:23:45;4.15;;;3.22;;
75506;SDS011;64086;43.220;27.878;2023-03-17T04:26:11;5.35;;;3.30;;
75506;SDS011;64086;43.220;27.878;2023-03-17T04:28:37;4.50;;;3.28;;
75506;SDS011;64086;43.220;27.878;2023-03-17T04:31:03;5.10;;;3.30;;
75506;SDS011;64086;43.220;27.878;2023-03-17T04:33:28;4.35;;;3.30;;
75506;SDS011;64086;43.220;27.878;2023-03-17T04:35:54;5.20;;;3.30;;
75506;SDS011;64086;43.220;27.878;2023-03-17T04:38:19;4.55;;;3.20;;
75506;SDS011;64086;43.220;27.878;2023-03-17T04:40:45;4.82;;;3.38;;
75506;SDS011;64086;43.220;27.878;2023-03-17T04:43:11;5.53;;;3.35;;
75506;SDS011;64086;43.220;27.878;2023-03-17T04:45:36;5.32;;;3.22;;
75506;SDS011;64086;43.220;27.878;2023-03-17T04:48:02;3.75;;;2.90;;
75506;SDS011;64086;43.220;27.878;2023-03-17T04:50:28;4.80;;;3.00;;
75506;SDS011;64086;43.220;27.878;2023-03-17T04:52:53;4.72;;;2.83;;
75506;SDS011;64086;43.220;27.878;2023-03-17T04:55:18;4.97;;;2.92;;
75506;SDS011;64086;43.220;27.878;2023-03-17T04:57:44;4.13;;;2.85;;
75506;SDS011;64086;43.220;27.878;2023-03-17T05:00:10;4.60;;;2.83;;
75506;SDS011;64086;43.220;27.878;2023-03-17T05:02:36;4.30;;;2.70;;
75506;SDS011;64086;43.220;27.878;2023-03-17T05:05:03;3.95;;;2.63;;
75506;SDS011;64086;43.220;27.878;2023-03-17T05:07:29;4.65;;;2.92;;
75506;SDS011;64086;43.220;27.878;2023-03-17T05:09:55;6.10;;;2.90;;
75506;SDS011;64086;43.220;27.878;2023-03-17T05:12:21;4.63;;;3.13;;
75506;SDS011;64086;43.220;27.878;2023-03-17T05:14:46;5.78;;;2.90;;
75506;SDS011;64086;43.220;27.878;2023-03-17T05:17:12;4.28;;;2.47;;
75506;SDS011;64086;43.220;27.878;2023-03-17T05:19:38;5.07;;;2.90;;
75506;SDS011;64086;43.220;27.878;2023-03-17T05:22:03;5.18;;;3.10;;
75506;SDS011;64086;43.220;27.878;2023-03-17T05:24:29;4.63;;;2.90;;
75506;SDS011;64086;43.220;27.878;2023-03-17T05:26:55;5.13;;;2.70;;
75506;SDS011;64086;43.220;27.878;2023-03-17T05:29:20;4.78;;;2.70;;
75506;SDS011;64086;43.220;27.878;2023-03-17T05:31:46;5.68;;;2.97;;
75506;SDS011;64086;43.220;27.878;2023-03-17T05:34:12;4.88;;;3.08;;
75506;SDS011;64086;43.220;27.878;2023-03-17T05:36:37;4.63;;;3.15;;
75506;SDS011;64086;43.220;27.878;2023-03-17T05:39:03;5.13;;;3.20;;
75506;SDS011;64086;43.220;27.878;2023-03-17T05:41:29;4.75;;;3.13;;
75506;SDS011;64086;43.220;27.878;2023-03-17T05:43:54;3.72;;;2.70;;
75506;SDS011;64086;43.220;27.878;2023-03-17T05:46:20;4.38;;;2.78;;
75506;SDS011;64086;43.220;27.878;2023-03-17T05:48:46;4.22;;;3.03;;
75506;SDS011;64086;43.220;27.878;2023-03-17T05:51:12;4.22;;;2.60;;
75506;SDS011;64086;43.220;27.878;2023-03-17T05:53:38;4.93;;;3.00;;
75506;SDS011;64086;43.220;27.878;2023-03-17T05:56:04;5.68;;;3.40;;
75506;SDS011;64086;43.220;27.878;2023-03-17T05:58:30;4.90;;;3.05;;
75506;SDS011;64086;43.220;27.878;2023-03-17T06:00:56;4.30;;;3.15;;
75506;SDS011;64086;43.220;27.878;2023-03-17T06:03:21;5.28;;;2.90;;
75506;SDS011;64086;43.220;27.878;2023-03-17T06:05:47;4.45;;;2.85;;
75506;SDS011;64086;43.220;27.878;2023-03-17T06:08:13;4.82;;;2.90;;
75506;SDS011;64086;43.220;27.878;2023-03-17T06:10:38;4.80;;;3.22;;
75506;SDS011;64086;43.220;27.878;2023-03-17T06:13:05;5.63;;;3.03;;
75506;SDS011;64086;43.220;27.878;2023-03-17T06:15:31;4.45;;;3.30;;
75506;SDS011;64086;43.220;27.878;2023-03-17T06:17:57;6.97;;;5.72;;
75506;SDS011;64086;43.220;27.878;2023-03-17T06:20:23;8.20;;;5.80;;
75506;SDS011;64086;43.220;27.878;2023-03-17T06:22:49;6.53;;;4.55;;
75506;SDS011;64086;43.220;27.878;2023-03-17T06:25:14;5.55;;;3.58;;
75506;SDS011;64086;43.220;27.878;2023-03-17T06:27:40;6.28;;;3.40;;
75506;SDS011;64086;43.220;27.878;2023-03-17T06:30:07;6.25;;;2.97;;
75506;SDS011;64086;43.220;27.878;2023-03-17T06:32:33;6.18;;;3.20;;
75506;SDS011;64086;43.220;27.878;2023-03-17T06:34:59;4.10;;;2.70;;
75506;SDS011;64086;43.220;27.878;2023-03-17T06:37:25;5.45;;;3.60;;
75506;SDS011;64086;43.220;27.878;2023-03-17T06:39:51;5.55;;;2.72;;
75506;SDS011;64086;43.220;27.878;2023-03-17T06:42:17;5.85;;;3.50;;
75506;SDS011;64086;43.220;27.878;2023-03-17T06:44:43;5.28;;;3.38;;
75506;SDS011;64086;43.220;27.878;2023-03-17T06:47:09;6.00;;;3.85;;
75506;SDS011;64086;43.220;27.878;2023-03-17T06:49:35;5.22;;;3.05;;
75506;SDS011;64086;43.220;27.878;2023-03-17T06:52:00;5.88;;;3.10;;
75506;SDS011;64086;43.220;27.878;2023-03-17T06:54:26;5.45;;;3.30;;
75506;SDS011;64086;43.220;27.878;2023-03-17T06:56:51;5.03;;;2.78;;
75506;SDS011;64086;43.220;27.878;2023-03-17T06:59:17;4.57;;;2.50;;
75506;SDS011;64086;43.220;27.878;2023-03-17T07:01:44;7.57;;;3.58;;
75506;SDS011;64086;43.220;27.878;2023-03-17T07:04:10;5.53;;;2.50;;
75506;SDS011;64086;43.220;27.878;2023-03-17T07:06:36;5.60;;;2.90;;
75506;SDS011;64086;43.220;27.878;2023-03-17T07:09:01;6.65;;;3.65;;
75506;SDS011;64086;43.220;27.878;2023-03-17T07:11:28;6.65;;;3.80;;
75506;SDS011;64086;43.220;27.878;2023-03-17T07:13:54;5.85;;;3.00;;
75506;SDS011;64086;43.220;27.878;2023-03-17T07:16:20;7.45;;;3.40;;
75506;SDS011;64086;43.220;27.878;2023-03-17T07:18:46;6.20;;;3.40;;
75506;SDS011;64086;43.220;27.878;2023-03-17T07:21:12;7.85;;;2.70;;
75506;SDS011;64086;43.220;27.878;2023-03-17T07:23:38;6.80;;;3.22;;
75506;SDS011;64086;43.220;27.878;2023-03-17T07:26:04;6.57;;;3.65;;
75506;SDS011;64086;43.220;27.878;2023-03-17T07:28:30;4.78;;;2.70;;
75506;SDS011;64086;43.220;27.878;2023-03-17T07:30:55;3.65;;;2.55;;
75506;SDS011;64086;43.220;27.878;2023-03-17T07:33:22;6.90;;;3.35;;
75506;SDS011;64086;43.220;27.878;2023-03-17T07:35:48;7.30;;;4.05;;
75506;SDS011;64086;43.220;27.878;2023-03-17T07:38:15;4.90;;;2.75;;
75506;SDS011;64086;43.220;27.878;2023-03-17T07:40:42;5.80;;;2.60;;
75506;SDS011;64086;43.220;27.878;2023-03-17T07:43:08;5.07;;;2.67;;
75506;SDS011;64086;43.220;27.878;2023-03-17T07:45:34;5.30;;;2.58;;
75506;SDS011;64086;43.220;27.878;2023-03-17T07:48:00;4.15;;;2.20;;
75506;SDS011;64086;43.220;27.878;2023-03-17T07:50:27;4.80;;;2.13;;
75506;SDS011;64086;43.220;27.878;2023-03-17T07:52:53;4.63;;;2.38;;
75506;SDS011;64086;43.220;27.878;2023-03-17T07:55:18;5.32;;;2.40;;
75506;SDS011;64086;43.220;27.878;2023-03-17T07:57:43;4.15;;;2.22;;
75506;SDS011;64086;43.220;27.878;2023-03-17T08:00:09;5.45;;;3.40;;
75506;SDS011;64086;43.220;27.878;2023-03-17T08:02:37;5.25;;;2.40;;
75506;SDS011;64086;43.220;27.878;2023-03-17T08:05:03;3.95;;;2.53;;
75506;SDS011;64086;43.220;27.878;2023-03-17T08:07:31;6.60;;;2.78;;
75506;SDS011;64086;43.220;27.878;2023-03-17T08:09:57;4.32;;;2.10;;
75506;SDS011;64086;43.220;27.878;2023-03-17T08:12:23;4.28;;;2.08;;
75506;SDS011;64086;43.220;27.878;2023-03-17T08:14:49;4.05;;;1.95;;
75506;SDS011;64086;43.220;27.878;2023-03-17T08:17:15;4.85;;;1.98;;
75506;SDS011;64086;43.220;27.878;2023-03-17T08:19:41;4.13;;;2.15;;
75506;SDS011;64086;43.220;27.878;2023-03-17T08:22:07;3.55;;;2.10;;
75506;SDS011;64086;43.220;27.878;2023-03-17T08:24:32;6.22;;;3.25;;
75506;SDS011;64086;43.220;27.878;2023-03-17T08:26:58;5.70;;;3.05;;
75506;SDS011;64086;43.220;27.878;2023-03-17T08:29:23;3.80;;;2.10;;
75506;SDS011;64086;43.220;27.878;2023-03-17T08:31:49;2.95;;;2.05;;
75506;SDS011;64086;43.220;27.878;2023-03-17T08:34:14;3.53;;;2.50;;
75506;SDS011;64086;43.220;27.878;2023-03-17T08:36:40;3.97;;;2.60;;
75506;SDS011;64086;43.220;27.878;2023-03-17T08:39:06;8.02;;;2.78;;
75506;SDS011;64086;43.220;27.878;2023-03-17T08:41:33;4.82;;;1.83;;
75506;SDS011;64086;43.220;27.878;2023-03-17T08:43:58;4.97;;;1.70;;
75506;SDS011;64086;43.220;27.878;2023-03-17T08:46:28;3.90;;;1.67;;
75506;SDS011;64086;43.220;27.878;2023-03-17T08:48:55;4.32;;;1.95;;
75506;SDS011;64086;43.220;27.878;2023-03-17T08:51:22;3.40;;;2.10;;
75506;SDS011;64086;43.220;27.878;2023-03-17T08:53:49;4.75;;;2.20;;
75506;SDS011;64086;43.220;27.878;2023-03-17T08:56:15;4.03;;;1.83;;
75506;SDS011;64086;43.220;27.878;2023-03-17T08:58:41;3.95;;;1.70;;
75506;SDS011;64086;43.220;27.878;2023-03-17T09:01:07;3.20;;;2.00;;
75506;SDS011;64086;43.220;27.878;2023-03-17T09:03:35;3.10;;;1.55;;
75506;SDS011;64086;43.220;27.878;2023-03-17T09:06:02;3.90;;;1.70;;
75506;SDS011;64086;43.220;27.878;2023-03-17T09:08:30;4.78;;;2.15;;
75506;SDS011;64086;43.220;27.878;2023-03-17T09:10:57;4.30;;;2.25;;
75506;SDS011;64086;43.220;27.878;2023-03-17T09:13:22;8.60;;;2.45;;
75506;SDS011;64086;43.220;27.878;2023-03-17T09:15:48;6.25;;;3.10;;
75506;SDS011;64086;43.220;27.878;2023-03-17T09:18:14;3.50;;;2.20;;
75506;SDS011;64086;43.220;27.878;2023-03-17T09:20:39;4.50;;;2.30;;
75506;SDS011;64086;43.220;27.878;2023-03-17T09:23:06;5.10;;;1.90;;
75506;SDS011;64086;43.220;27.878;2023-03-17T09:25:33;4.60;;;1.98;;
75506;SDS011;64086;43.220;27.878;2023-03-17T09:27:59;4.13;;;1.85;;
75506;SDS011;64086;43.220;27.878;2023-03-17T09:30:25;3.88;;;2.30;;
75506;SDS011;64086;43.220;27.878;2023-03-17T09:32:51;4.00;;;1.83;;
75506;SDS011;64086;43.220;27.878;2023-03-17T09:35:16;5.05;;;1.90;;
75506;SDS011;64086;43.220;27.878;2023-03-17T09:37:42;4.35;;;1.70;;
75506;SDS011;64086;43.220;27.878;2023-03-17T09:40:09;4.10;;;1.65;;
75506;SDS011;64086;43.220;27.878;2023-03-17T09:51:19;4.63;;;1.90;;
75506;SDS011;64086;43.220;27.878;2023-03-17T09:53:20;3.92;;;1.95;;
75506;SDS011;64086;43.220;27.878;2023-03-17T09:56:11;8.27;;;1.92;;
75506;SDS011;64086;43.220;27.878;2023-03-17T09:58:38;3.80;;;1.95;;
75506;SDS011;64086;43.220;27.878;2023-03-17T10:01:07;2.90;;;1.77;;
75506;SDS011;64086;43.220;27.878;2023-03-17T10:03:33;3.33;;;1.83;;
75506;SDS011;64086;43.220;27.878;2023-03-17T10:06:23;4.45;;;1.95;;
75506;SDS011;64086;43.220;27.878;2023-03-17T10:09:01;4.60;;;2.28;;
75506;SDS011;64086;43.220;27.878;2023-03-17T10:11:38;4.70;;;2.20;;
75506;SDS011;64086;43.220;27.878;2023-03-17T10:16:52;4.95;;;2.17;;
75506;SDS011;64086;43.220;27.878;2023-03-17T10:22:07;3.85;;;2.17;;
75506;SDS011;64086;43.220;27.878;2023-03-17T10:24:50;6.85;;;2.08;;
75506;SDS011;64086;43.220;27.878;2023-03-17T10:27:17;4.00;;;2.30;;
75506;SDS011;64086;43.220;27.878;2023-03-17T10:29:42;4.65;;;2.20;;
75506;SDS011;64086;43.220;27.878;2023-03-17T10:32:09;4.18;;;2.00;;
75506;SDS011;64086;43.220;27.878;2023-03-17T10:34:37;3.20;;;2.13;;
75506;SDS011;64086;43.220;27.878;2023-03-17T10:39:52;5.47;;;2.50;;
75506;SDS011;64086;43.220;27.878;2023-03-17T10:44:53;3.33;;;2.50;;
75506;SDS011;64086;43.220;27.878;2023-03-17T10:50:29;2.90;;;2.05;;
75506;SDS011;64086;43.220;27.878;2023-03-17T10:53:04;4.40;;;2.42;;
75506;SDS011;64086;43.220;27.878;2023-03-17T10:55:33;4.28;;;2.40;;
75506;SDS011;64086;43.220;27.878;2023-03-17T10:58:14;4.40;;;2.75;;
75506;SDS011;64086;43.220;27.878;2023-03-17T11:00:58;4.50;;;2.85;;
75506;SDS011;64086;43.220;27.878;2023-03-17T11:03:30;3.60;;;2.60;;
75506;SDS011;64086;43.220;27.878;2023-03-17T11:06:03;4.35;;;2.80;;
75506;SDS011;64086;43.220;27.878;2023-03-17T11:08:37;5.60;;;2.88;;
75506;SDS011;64086;43.220;27.878;2023-03-17T11:11:24;4.25;;;3.22;;
75506;SDS011;64086;43.220;27.878;2023-03-17T11:14:03;6.68;;;3.03;;
75506;SDS011;64086;43.220;27.878;2023-03-17T11:16:33;6.35;;;3.30;;
75506;SDS011;64086;43.220;27.878;2023-03-17T11:19:01;4.28;;;3.00;;
75506;SDS011;64086;43.220;27.878;2023-03-17T11:21:31;6.78;;;3.10;;
75506;SDS011;64086;43.220;27.878;2023-03-17T11:24:07;5.10;;;3.20;;
75506;SDS011;64086;43.220;27.878;2023-03-17T11:31:39;5.05;;;3.25;;
75506;SDS011;64086;43.220;27.878;2023-03-17T11:34:30;3.90;;;2.67;;
75506;SDS011;64086;43.220;27.878;2023-03-17T11:37:10;4.00;;;2.75;;
75506;SDS011;64086;43.220;27.878;2023-03-17T11:40:00;4.28;;;3.05;;
75506;SDS011;64086;43.220;27.878;2023-03-17T11:45:26;4.90;;;2.78;;
75506;SDS011;64086;43.220;27.878;2023-03-17T11:48:05;4.13;;;2.50;;
75506;SDS011;64086;43.220;27.878;2023-03-17T11:55:48;5.05;;;2.70;;
75506;SDS011;64086;43.220;27.878;2023-03-17T11:58:39;7.93;;;3.00;;
75506;SDS011;64086;43.220;27.878;2023-03-17T12:01:16;4.18;;;2.40;;
75506;SDS011;64086;43.220;27.878;2023-03-17T12:03:50;3.92;;;2.53;;
75506;SDS011;64086;43.220;27.878;2023-03-17T12:06:41;4.10;;;2.33;;
75506;SDS011;64086;43.220;27.878;2023-03-17T12:09:46;4.15;;;2.50;;
75506;SDS011;64086;43.220;27.878;2023-03-17T12:12:05;3.92;;;2.15;;
75506;SDS011;64086;43.220;27.878;2023-03-17T12:14:43;3.22;;;2.17;;
75506;SDS011;64086;43.220;27.878;2023-03-17T12:17:20;3.75;;;2.10;;
75506;SDS011;64086;43.220;27.878;2023-03-17T12:22:30;3.90;;;2.08;;
75506;SDS011;64086;43.220;27.878;2023-03-17T12:28:04;4.78;;;1.90;;
75506;SDS011;64086;43.220;27.878;2023-03-17T12:35:51;3.97;;;1.70;;
75506;SDS011;64086;43.220;27.878;2023-03-17T12:38:37;3.63;;;2.08;;
75506;SDS011;64086;43.220;27.878;2023-03-17T12:41:27;2.88;;;1.77;;
75506;SDS011;64086;43.220;27.878;2023-03-17T12:46:42;2.90;;;1.60;;
75506;SDS011;64086;43.220;27.878;2023-03-17T12:54:45;3.55;;;2.10;;
75506;SDS011;64086;43.220;27.878;2023-03-17T12:57:16;4.03;;;1.95;;
75506;SDS011;64086;43.220;27.878;2023-03-17T12:59:43;3.85;;;1.90;;
75506;SDS011;64086;43.220;27.878;2023-03-17T13:04:48;4.20;;;2.08;;
75506;SDS011;64086;43.220;27.878;2023-03-17T13:07:22;3.00;;;2.00;;
75506;SDS011;64086;43.220;27.878;2023-03-17T13:17:49;3.50;;;1.85;;
75506;SDS011;64086;43.220;27.878;2023-03-17T13:20:19;3.35;;;1.98;;
75506;SDS011;64086;43.220;27.878;2023-03-17T13:35:40;3.95;;;2.50;;
75506;SDS011;64086;43.220;27.878;2023-03-17T13:48:54;5.40;;;2.53;;
75506;SDS011;64086;43.220;27.878;2023-03-17T13:51:24;4.97;;;2.40;;
75506;SDS011;64086;43.220;27.878;2023-03-17T13:54:06;5.60;;;2.10;;
75506;SDS011;64086;43.220;27.878;2023-03-17T13:56:50;3.92;;;2.40;;
75506;SDS011;64086;43.220;27.878;2023-03-17T13:59:18;4.10;;;2.35;;
75506;SDS011;64086;43.220;27.878;2023-03-17T14:04:18;5.40;;;3.10;;
75506;SDS011;64086;43.220;27.878;2023-03-17T14:06:46;5.22;;;3.00;;
75506;SDS011;64086;43.220;27.878;2023-03-17T14:09:36;4.35;;;2.92;;
75506;SDS011;64086;43.220;27.878;2023-03-17T14:12:02;5.50;;;3.15;;
75506;SDS011;64086;43.220;27.878;2023-03-17T14:14:36;5.05;;;2.85;;
75506;SDS011;64086;43.220;27.878;2023-03-17T14:17:21;5.18;;;3.28;;
75506;SDS011;64086;43.220;27.878;2023-03-17T14:19:59;4.68;;;3.30;;
75506;SDS011;64086;43.220;27.878;2023-03-17T14:22:41;6.03;;;3.28;;
75506;SDS011;64086;43.220;27.878;2023-03-17T14:25:16;6.35;;;3.38;;
75506;SDS011;64086;43.220;27.878;2023-03-17T14:27:47;6.68;;;3.25;;
75506;SDS011;64086;43.220;27.878;2023-03-17T14:30:18;4.90;;;3.03;;
75506;SDS011;64086;43.220;27.878;2023-03-17T14:32:50;4.55;;;2.78;;
75506;SDS011;64086;43.220;27.878;2023-03-17T14:35:29;5.30;;;2.60;;
75506;SDS011;64086;43.220;27.878;2023-03-17T14:37:55;6.53;;;2.50;;
75506;SDS011;64086;43.220;27.878;2023-03-17T14:40:23;7.00;;;2.78;;
75506;SDS011;64086;43.220;27.878;2023-03-17T14:42:50;5.88;;;2.70;;
75506;SDS011;64086;43.220;27.878;2023-03-17T14:45:20;8.10;;;3.42;;
75506;SDS011;64086;43.220;27.878;2023-03-17T14:47:53;3.58;;;1.80;;
75506;SDS011;64086;43.220;27.878;2023-03-17T14:50:22;3.50;;;2.10;;
75506;SDS011;64086;43.220;27.878;2023-03-17T14:52:48;4.45;;;2.42;;
75506;SDS011;64086;43.220;27.878;2023-03-17T14:55:13;4.30;;;2.30;;
75506;SDS011;64086;43.220;27.878;2023-03-17T14:57:40;4.55;;;2.35;;
75506;SDS011;64086;43.220;27.878;2023-03-17T15:02:56;3.15;;;1.90;;
75506;SDS011;64086;43.220;27.878;2023-03-17T15:08:01;4.72;;;2.00;;
75506;SDS011;64086;43.220;27.878;2023-03-17T15:10:28;4.25;;;2.25;;
75506;SDS011;64086;43.220;27.878;2023-03-17T15:13:01;4.25;;;1.80;;
75506;SDS011;64086;43.220;27.878;2023-03-17T15:15:32;4.38;;;2.00;;
75506;SDS011;64086;43.220;27.878;2023-03-17T15:18:01;5.22;;;2.45;;
75506;SDS011;64086;43.220;27.878;2023-03-17T15:20:29;4.30;;;1.85;;
75506;SDS011;64086;43.220;27.878;2023-03-17T15:25:49;4.43;;;2.00;;
75506;SDS011;64086;43.220;27.878;2023-03-17T15:28:19;3.45;;;1.60;;
75506;SDS011;64086;43.220;27.878;2023-03-17T15:30:47;4.55;;;2.28;;
75506;SDS011;64086;43.220;27.878;2023-03-17T15:33:21;4.32;;;2.25;;
75506;SDS011;64086;43.220;27.878;2023-03-17T15:35:55;5.13;;;2.00;;
75506;SDS011;64086;43.220;27.878;2023-03-17T15:38:23;4.28;;;2.45;;
75506;SDS011;64086;43.220;27.878;2023-03-17T15:40:49;4.55;;;2.30;;
75506;SDS011;64086;43.220;27.878;2023-03-17T15:43:15;3.97;;;2.00;;
75506;SDS011;64086;43.220;27.878;2023-03-17T15:45:42;4.38;;;2.20;;
75506;SDS011;64086;43.220;27.878;2023-03-17T15:48:16;5.78;;;2.25;;
75506;SDS011;64086;43.220;27.878;2023-03-17T15:50:46;5.45;;;2.33;;
75506;SDS011;64086;43.220;27.878;2023-03-17T15:53:12;4.38;;;2.08;;
75506;SDS011;64086;43.220;27.878;2023-03-17T15:55:38;3.75;;;2.20;;
75506;SDS011;64086;43.220;27.878;2023-03-17T15:58:03;4.80;;;2.45;;
75506;SDS011;64086;43.220;27.878;2023-03-17T16:00:29;5.68;;;2.70;;
75506;SDS011;64086;43.220;27.878;2023-03-17T16:02:55;4.10;;;2.40;;
75506;SDS011;64086;43.220;27.878;2023-03-17T16:05:24;4.22;;;2.05;;
75506;SDS011;64086;43.220;27.878;2023-03-17T16:07:51;4.53;;;2.30;;
75506;SDS011;64086;43.220;27.878;2023-03-17T16:10:18;4.82;;;2.42;;
75506;SDS011;64086;43.220;27.878;2023-03-17T16:12:48;5.07;;;2.30;;
75506;SDS011;64086;43.220;27.878;2023-03-17T16:15:15;5.00;;;2.40;;
75506;SDS011;64086;43.220;27.878;2023-03-17T16:17:45;4.30;;;1.95;;
75506;SDS011;64086;43.220;27.878;2023-03-17T16:20:17;5.70;;;2.00;;
75506;SDS011;64086;43.220;27.878;2023-03-17T16:22:44;4.82;;;2.40;;
75506;SDS011;64086;43.220;27.878;2023-03-17T16:25:24;3.45;;;1.90;;
75506;SDS011;64086;43.220;27.878;2023-03-17T16:27:52;4.32;;;2.08;;
75506;SDS011;64086;43.220;27.878;2023-03-17T16:30:23;4.10;;;2.17;;